createdAt,value
2022-12-26T00:01:44.710Z,83.63
2022-12-26T00:06:41.348Z,83.06
2022-12-26T00:11:40.833Z,82.38
2022-12-26T00:16:39.036Z,82.06
2022-12-26T00:21:35.923Z,82.27
2022-12-26T00:26:35.533Z,81.56
2022-12-26T00:31:35.648Z,81.55
2022-12-26T00:36:33.372Z,81.72
2022-12-26T00:41:29.981Z,81.01
2022-12-26T00:46:27.019Z,80.98
2022-12-26T00:51:24.996Z,81.66
2022-12-26T00:56:21.720Z,80.90
2022-12-26T01:01:19.568Z,80.22
2022-12-26T01:06:16.574Z,80.18
2022-12-26T01:11:14.723Z,80.05
2022-12-26T01:16:11.910Z,79.95
2022-12-26T01:21:10.314Z,79.83
2022-12-26T01:26:17.199Z,79.62
2022-12-26T01:31:19.089Z,79.25
2022-12-26T01:36:16.300Z,80.71
2022-12-26T01:41:22.712Z,81.21
2022-12-26T01:46:21.416Z,81.17
2022-12-26T01:51:21.856Z,79.04
2022-12-26T01:56:21.564Z,78.99
2022-12-26T02:01:19.791Z,78.46
2022-12-26T02:06:17.114Z,78.84
2022-12-26T02:11:16.130Z,80.24
2022-12-26T02:16:19.861Z,79.43
2022-12-26T02:21:30.251Z,79.89
2022-12-26T02:26:50.861Z,79.67
2022-12-26T02:31:52.127Z,78.99
2022-12-26T02:37:07.906Z,78.52
2022-12-26T02:42:11.031Z,77.24
2022-12-26T02:47:11.416Z,77.46
2022-12-26T02:52:42.153Z,77.72
2022-12-26T02:58:02.367Z,76.30
2022-12-26T03:03:20.662Z,75.84
2022-12-26T03:08:38.952Z,75.46
2022-12-26T03:13:36.771Z,76.03
2022-12-26T03:18:58.941Z,76.77
2022-12-26T03:23:54.230Z,76.24
2022-12-26T03:29:18.680Z,76.67
2022-12-26T03:34:19.318Z,76.64
2022-12-26T03:39:41.851Z,76.30
2022-12-26T03:45:05.080Z,76.02
2022-12-26T03:50:36.254Z,76.22
2022-12-26T03:55:55.534Z,75.71
2022-12-26T04:01:11.978Z,74.49
2022-12-26T04:06:44.000Z,74.58
2022-12-26T04:12:01.988Z,73.36
2022-12-26T04:17:19.216Z,74.05
2022-12-26T04:22:43.538Z,74.86
2022-12-26T04:27:58.401Z,75.97
2022-12-26T04:33:15.951Z,76.70
2022-12-26T04:38:33.145Z,77.98
2022-12-26T04:43:51.672Z,78.43
2022-12-26T04:49:08.639Z,78.38
2022-12-26T04:54:06.666Z,79.07
2022-12-26T04:59:05.337Z,79.93
2022-12-26T05:04:19.693Z,79.16
2022-12-26T05:09:36.953Z,79.54
2022-12-26T05:14:36.018Z,80.28
2022-12-26T05:19:51.003Z,79.73
2022-12-26T05:25:06.955Z,78.73
2022-12-26T05:30:03.733Z,77.60
2022-12-26T05:35:01.004Z,77.84
2022-12-26T05:39:59.239Z,76.95
2022-12-26T05:44:55.789Z,76.84
2022-12-26T05:49:52.626Z,76.97
2022-12-26T05:54:49.151Z,77.18
2022-12-26T05:59:46.425Z,76.82
2022-12-26T06:04:42.943Z,76.58
2022-12-26T06:09:39.523Z,75.62
2022-12-26T06:14:36.020Z,74.69
2022-12-26T06:19:37.948Z,74.53
2022-12-26T06:24:39.141Z,75.41
2022-12-26T06:29:37.701Z,75.26
2022-12-26T06:34:34.909Z,75.21
2022-12-26T06:39:31.524Z,75.29
2022-12-26T06:44:28.441Z,75.50
2022-12-26T06:49:32.116Z,75.42
2022-12-26T06:54:35.017Z,73.75
2022-12-26T06:59:31.595Z,75.65
2022-12-26T07:04:28.182Z,76.31
2022-12-26T07:09:29.824Z,76.40
2022-12-26T07:14:32.291Z,76.38
2022-12-26T07:19:28.792Z,76.21
2022-12-26T07:24:25.519Z,76.07
2022-12-26T07:29:22.121Z,75.27
2022-12-26T07:34:20.390Z,75.58
2022-12-26T07:39:18.115Z,75.03
2022-12-26T07:44:14.673Z,75.84
2022-12-26T07:49:11.814Z,76.54
2022-12-26T07:54:14.488Z,76.68
2022-12-26T07:59:12.926Z,76.49
2022-12-26T08:04:10.951Z,76.37
2022-12-26T08:09:08.071Z,76.45
2022-12-26T08:14:05.345Z,76.73
2022-12-26T08:19:03.355Z,76.55
2022-12-26T08:24:00.146Z,76.14
2022-12-26T08:28:58.835Z,75.93
2022-12-26T08:33:59.700Z,77.54
2022-12-26T08:38:57.222Z,79.68
2022-12-26T08:44:25.674Z,81.21
2022-12-26T08:49:14.897Z,81.04
2022-12-26T08:54:14.477Z,80.47
2022-12-26T08:59:10.975Z,79.72
2022-12-26T09:04:11.482Z,78.93
2022-12-26T09:09:10.726Z,79.16
2022-12-26T09:14:07.490Z,78.71
2022-12-26T09:19:05.101Z,78.48
2022-12-26T09:24:03.832Z,78.61
2022-12-26T09:29:03.441Z,78.76
2022-12-26T09:34:03.154Z,78.71
2022-12-26T09:39:01.024Z,78.76
2022-12-26T09:44:10.752Z,78.77
2022-12-26T09:49:12.179Z,79.68
2022-12-26T09:54:14.374Z,79.21
2022-12-26T09:59:15.213Z,79.26
2022-12-26T10:04:25.067Z,78.82
2022-12-26T10:09:46.458Z,79.62
2022-12-26T10:14:51.410Z,79.60
2022-12-26T10:19:57.062Z,78.15
2022-12-26T10:24:55.408Z,77.75
2022-12-26T10:29:56.175Z,76.44
2022-12-26T10:34:59.514Z,77.32
2022-12-26T10:39:57.532Z,78.00
2022-12-26T10:44:54.854Z,77.85
2022-12-26T10:49:52.370Z,76.66
2022-12-26T10:55:29.060Z,77.25
2022-12-26T11:00:18.375Z,78.06
2022-12-26T11:05:40.357Z,77.74
2022-12-26T11:10:39.283Z,77.18
2022-12-26T11:15:38.824Z,76.88
2022-12-26T11:20:35.527Z,77.33
2022-12-26T11:25:35.258Z,77.69
2022-12-26T11:30:33.678Z,77.56
2022-12-26T11:35:36.484Z,77.25
2022-12-26T11:40:36.045Z,76.57
2022-12-26T11:45:42.815Z,76.62
2022-12-26T11:50:47.991Z,75.86
2022-12-26T11:55:59.966Z,75.21
2022-12-26T12:01:06.833Z,72.97
2022-12-26T12:06:11.007Z,74.65
2022-12-26T12:11:15.707Z,75.64
2022-12-26T12:16:21.749Z,76.47
2022-12-26T12:21:26.196Z,74.93
2022-12-26T12:26:27.194Z,75.47
2022-12-26T12:31:43.131Z,75.87
2022-12-26T12:36:54.321Z,74.45
2022-12-26T12:42:01.612Z,75.11
2022-12-26T12:47:04.096Z,74.56
2022-12-26T12:52:11.949Z,75.67
2022-12-26T12:57:12.969Z,76.30
2022-12-26T13:02:20.283Z,76.80
2022-12-26T13:07:22.036Z,76.55
2022-12-26T13:12:23.381Z,76.58
2022-12-26T13:17:24.059Z,76.97
2022-12-26T13:22:26.339Z,77.09
2022-12-26T13:27:26.779Z,77.14
2022-12-26T13:32:24.640Z,77.69
2022-12-26T13:37:49.093Z,78.12
2022-12-26T13:43:08.315Z,78.35
2022-12-26T13:48:39.542Z,78.60
2022-12-26T13:53:39.356Z,79.02
2022-12-26T13:58:54.687Z,79.27
2022-12-26T14:04:06.807Z,79.38
2022-12-26T14:09:08.905Z,79.42
2022-12-26T14:14:19.254Z,78.93
2022-12-26T14:19:26.678Z,79.06
2022-12-26T14:24:34.652Z,79.24
2022-12-26T14:29:42.872Z,79.24
2022-12-26T14:34:47.618Z,79.57
2022-12-26T14:39:48.363Z,79.52
2022-12-26T14:44:46.177Z,79.55
2022-12-26T14:49:43.221Z,80.27
2022-12-26T14:54:50.885Z,80.78
2022-12-26T15:00:10.713Z,80.63
2022-12-26T15:05:14.392Z,81.08
2022-12-26T15:10:30.659Z,80.65
2022-12-26T15:15:34.414Z,80.57
2022-12-26T15:20:49.145Z,80.79
2022-12-26T15:26:03.719Z,81.73
2022-12-26T15:31:18.401Z,82.17
2022-12-26T15:36:20.079Z,82.59
2022-12-26T15:41:25.400Z,82.80
2022-12-26T15:46:24.540Z,83.33
2022-12-26T15:51:29.808Z,83.93
2022-12-26T15:56:44.627Z,83.99
2022-12-26T16:01:44.531Z,84.30
2022-12-26T16:06:52.627Z,85.10
2022-12-26T16:11:52.563Z,85.53
2022-12-26T16:16:49.331Z,85.80
2022-12-26T16:22:19.775Z,86.14
2022-12-26T16:27:18.711Z,85.59
2022-12-26T16:32:18.648Z,85.61
2022-12-26T16:37:17.553Z,85.72
2022-12-26T16:42:31.899Z,86.31
2022-12-26T16:47:34.088Z,87.24
2022-12-26T16:52:40.565Z,88.52
2022-12-26T16:57:42.953Z,89.13
2022-12-26T17:02:45.014Z,88.90
2022-12-26T17:07:45.558Z,89.55
2022-12-26T17:12:49.024Z,89.84
2022-12-26T17:17:48.200Z,90.78
2022-12-26T17:22:44.896Z,89.86
2022-12-26T17:27:42.190Z,90.72
2022-12-26T17:32:40.254Z,90.09
2022-12-26T17:37:43.219Z,89.72
2022-12-26T17:42:49.353Z,91.29
2022-12-26T17:47:45.899Z,91.22
2022-12-26T17:52:42.668Z,92.00
2022-12-26T17:57:39.209Z,91.90
2022-12-26T18:02:36.760Z,91.16
2022-12-26T18:07:33.563Z,91.43
2022-12-26T18:12:30.382Z,91.48
2022-12-26T18:17:26.969Z,91.14
2022-12-26T18:22:24.172Z,90.63
2022-12-26T18:27:22.656Z,90.03
2022-12-26T18:32:22.510Z,90.47
2022-12-26T18:37:23.656Z,90.89
2022-12-26T18:42:20.938Z,91.50
2022-12-26T18:47:21.713Z,90.70
2022-12-26T18:52:18.467Z,91.05
2022-12-26T18:57:17.246Z,90.44
2022-12-26T19:02:18.589Z,90.44
2022-12-26T19:07:17.394Z,90.27
2022-12-26T19:12:14.030Z,90.50
2022-12-26T19:17:10.587Z,90.18
2022-12-26T19:22:10.394Z,91.84
2022-12-26T19:27:11.354Z,91.36
2022-12-26T19:32:09.900Z,90.57
2022-12-26T19:37:07.298Z,93.00
2022-12-26T19:42:03.914Z,92.23
2022-12-26T19:47:11.402Z,93.02
2022-12-26T19:52:10.655Z,94.08
2022-12-26T19:57:08.440Z,92.93
2022-12-26T20:02:05.429Z,92.16
2022-12-26T20:07:03.392Z,91.49
2022-12-26T20:12:04.346Z,91.58
2022-12-26T20:17:06.236Z,91.03
2022-12-26T20:22:05.683Z,91.06
2022-12-26T20:27:03.065Z,91.17
2022-12-26T20:32:00.381Z,90.99
2022-12-26T20:36:59.962Z,90.33
2022-12-26T20:41:58.926Z,89.77
2022-12-26T20:46:58.408Z,88.52
2022-12-26T20:51:55.001Z,87.13
2022-12-26T20:56:51.879Z,87.24
2022-12-26T21:01:50.143Z,87.21
2022-12-26T21:06:49.542Z,86.30
2022-12-26T21:11:46.115Z,87.16
2022-12-26T21:16:43.920Z,86.80
2022-12-26T21:21:44.105Z,86.98
2022-12-26T21:26:42.678Z,86.05
2022-12-26T21:31:39.346Z,85.70
2022-12-26T21:36:35.894Z,87.43
2022-12-26T21:41:32.475Z,89.95
2022-12-26T21:46:29.771Z,90.14
2022-12-26T21:51:29.065Z,88.89
2022-12-26T21:56:25.591Z,89.83
2022-12-26T22:01:26.018Z,92.02
2022-12-26T22:06:23.275Z,91.50
2022-12-26T22:11:40.680Z,92.14
2022-12-26T22:16:37.227Z,93.95
2022-12-26T22:21:35.876Z,92.91
2022-12-26T22:26:32.427Z,94.17
2022-12-26T22:31:34.124Z,94.18
2022-12-26T22:36:32.579Z,93.00
2022-12-26T22:41:29.770Z,92.05
2022-12-26T22:46:26.333Z,90.06
2022-12-26T22:51:23.941Z,90.24
2022-12-26T22:56:20.434Z,87.70
2022-12-26T23:01:20.235Z,87.78
2022-12-26T23:06:20.153Z,88.11
2022-12-26T23:11:17.102Z,87.61
2022-12-26T23:16:19.610Z,88.00
2022-12-26T23:21:39.361Z,87.90
2022-12-26T23:26:35.891Z,87.46
2022-12-26T23:31:35.814Z,86.06
2022-12-26T23:36:35.808Z,89.06
2022-12-26T23:41:32.783Z,91.34
2022-12-26T23:46:32.008Z,90.88
2022-12-26T23:51:28.540Z,91.64
2022-12-26T23:56:27.180Z,90.99
